Terminal Aerodrome Forecast
Issued by NWS

Home | Current Version | Previous Version | Text Only | Print | Product List | Glossary On
Versions: 1 2 3 4 5 6 7 8 9 10 11 12 13 14 15 16 17 18 19 20 21 22 23 24 25 26 27 28 29 30
000
FTUS43 KLSX 192300
TAFUIN
TAF
KUIN 192328Z 2000/2024 09003KT P6SM SCT025 OVC050
     FM200600 12004KT P6SM BKN015 OVC040
     FM200800 13004KT 5SM BR OVC006
     FM201800 15006KT 6SM BR OVC010=

USA.gov is the U.S. government's official web portal to all federal, state and local government web resources and services.